Terminal Aerodrome Forecast
Issued by NWS

Home | Current Version | Previous Version | Text Only | Print | Product List | Glossary Off
Versions: 1 2 3 4 5 6 7 8 9 10 11 12 13 14 15 16 17 18 19 20 21 22 23 24 25 26 27 28 29

000
FTUS43 KGRB 091700
TAFRHI
TAF
KRHI 091723Z 0918/1018 31009G17KT P6SM SCT040 BKN070
     FM092300 31006KT P6SM SCT070
     FM100200 VRB03KT P6SM SKC
     FM101500 19008KT P6SM SCT040=

USA.gov is the U.S. government's official web portal to all federal, state and local government web resources and services.